Startpagina
METAR-TAF:

METAR-TAF

Vliegvelden :

Weno, Micronesië

breedte: 07-28N, lengte: 151-51E, hoogte: 3 m

Actueel weer

Dit bericht is 23 minuten geleden gemaakt, om 06:50 UTC
Wind 12 kt uit het westen
Temperatuur 29°C
Vochtigheid 94%
Druk 1009 hPa
Zicht: 22.5 km
Verspreide wolken op 1200 ft, Cumulonimbus.
Gebroken wolken op 12000 ft
Geheel bewolkt op 28000 ft

METAR: PTKK 220650Z 27012KT 14SM SCT012CB BKN120 OVC280 29/28 A2980 RMK CB ALQDS MOV E SLP093 T02940279

Tijdstip: 17:13 (07:13 UTC)

Verwachting

Dit bericht is 1 uur en het 30 minuten geleden gemaakt, om 05:43 UTC
Verwachting geldig van 22 om 06 UTC tot 23 om 06 UTC
Wind 8 kt uit het westzuidwesten
Zicht: 10 km
Verspreide wolken op 1400 ft
Verspreide wolken op 3000 ft
buien in de omgeving

TAF: PTKK 220543Z 2206/2306 25008KT P6SM VCSH SCT014 SCT030

Waarnemingen en weersverwachtingen van meer dan 4000 vliegvelden (METAR en TAF).

De beschikbare stations zijn de gele en rode punten op de kaart.

Ga met uw muis naar het station om de naam te zien.

Klik dan om waarnemingen en weersverwachtingen te zien.

kaart wijzigen: klik op de groene knoppen met een zwart kruis om in te zoomen, op de groene knop met een streepje om uit te zoomen of op de groene pijlen voor aangrenzende kaarten.


METAR-TAF: